Time;durP1;ratioP1;P1;durP2;ratioP2;P2;SDS_P1;SDS_P2;PMS_P1;PMS_P2;Temp;Humidity;BMP_temperature;BMP_pressure;BME280_temperature;BME280_humidity;BME280_pressure;Samples;Min_cycle;Max_cycle;Signal;HPM_P1;HPM_P2
2022/04/04 00:00:25;;;;;;;9.60;5.53;;;14.30;44.80;;;;;;10264914;28;20280;-85
2022/04/04 00:05:28;;;;;;;8.20;4.40;;;14.10;44.90;;;;;;10280826;28;20572;-87
2022/04/04 00:10:30;;;;;;;9.53;5.00;;;14.20;44.90;;;;;;10267932;28;20261;-87
2022/04/04 00:15:33;;;;;;;12.57;4.90;;;14.20;44.90;;;;;;10264106;28;20211;-86
2022/04/04 00:20:35;;;;;;;9.23;4.90;;;14.20;44.90;;;;;;10267336;28;20246;-87
2022/04/04 00:25:42;;;;;;;10.47;5.20;;;14.20;45.00;;;;;;10277648;28;20273;-86
2022/04/04 00:30:44;;;;;;;8.90;4.90;;;14.10;45.30;;;;;;10294093;28;20609;-86
2022/04/04 00:35:47;;;;;;;6.57;4.73;;;14.10;45.20;;;;;;10258411;28;20270;-86
2022/04/04 00:40:50;;;;;;;10.43;4.83;;;14.20;45.30;;;;;;10287096;28;20347;-87
2022/04/04 00:45:53;;;;;;;8.17;4.70;;;14.30;45.20;;;;;;10277082;28;20554;-87
2022/04/04 00:50:56;;;;;;;6.30;4.40;;;14.30;45.20;;;;;;10277079;28;20202;-86
2022/04/04 00:55:59;;;;;;;8.77;4.70;;;14.20;45.20;;;;;;10261984;28;20237;-87
2022/04/04 01:01:04;;;;;;;8.67;4.40;;;14.20;45.40;;;;;;10274712;28;20323;-86
2022/04/04 01:06:07;;;;;;;7.70;4.43;;;14.20;45.70;;;;;;10287883;28;20233;-86
2022/04/04 01:11:10;;;;;;;7.27;4.37;;;14.20;45.60;;;;;;10251682;28;20234;-86
2022/04/04 01:16:12;;;;;;;7.87;5.27;;;14.20;45.80;;;;;;10276559;28;20276;-86
2022/04/04 01:21:19;;;;;;;8.07;4.53;;;14.10;46.10;;;;;;10273570;28;20291;-86
2022/04/04 01:26:22;;;;;;;6.07;4.20;;;13.80;46.60;;;;;;10285016;28;20206;-87
2022/04/04 01:31:24;;;;;;;6.50;4.47;;;13.70;46.90;;;;;;10259673;28;20210;-87
2022/04/04 01:36:27;;;;;;;6.67;4.37;;;13.90;46.80;;;;;;10280278;28;20237;-87
2022/04/04 01:41:29;;;;;;;5.40;3.80;;;14.00;46.80;;;;;;10267076;28;20637;-86
2022/04/04 01:46:32;;;;;;;8.00;4.87;;;14.00;46.80;;;;;;10254360;28;20225;-86
2022/04/04 01:51:39;;;;;;;5.97;3.77;;;14.10;46.70;;;;;;10287757;28;20701;-87
2022/04/04 01:56:41;;;;;;;9.90;4.23;;;14.00;46.80;;;;;;10261394;28;20592;-86
2022/04/04 02:01:44;;;;;;;5.93;3.90;;;14.10;46.90;;;;;;10264082;28;20301;-86
2022/04/04 02:06:47;;;;;;;7.90;4.57;;;14.00;47.10;;;;;;10255262;28;20229;-86
2022/04/04 02:11:50;;;;;;;4.43;3.30;;;14.00;47.20;;;;;;10287203;28;20609;-86
2022/04/04 02:16:53;;;;;;;7.97;4.17;;;14.10;47.10;;;;;;10258513;28;20217;-87
2022/04/04 02:21:55;;;;;;;7.23;4.03;;;14.10;47.10;;;;;;10286431;28;20662;-87
2022/04/04 02:26:58;;;;;;;5.73;4.03;;;14.10;47.10;;;;;;10268092;28;20367;-87
2022/04/04 02:32:00;;;;;;;6.27;3.73;;;14.10;47.10;;;;;;10248866;28;20265;-86
2022/04/04 02:37:03;;;;;;;8.13;3.80;;;14.10;47.10;;;;;;10259809;28;20667;-86
2022/04/04 02:42:06;;;;;;;6.77;3.43;;;14.10;47.30;;;;;;10269380;28;20297;-86
2022/04/04 02:47:09;;;;;;;6.77;3.37;;;14.30;47.10;;;;;;10276125;28;20271;-87
2022/04/04 02:52:12;;;;;;;6.20;3.97;;;14.30;47.10;;;;;;10284427;28;20639;-87
2022/04/04 02:57:16;;;;;;;5.23;3.60;;;14.40;47.10;;;;;;10263990;28;20308;-87
2022/04/04 03:02:18;;;;;;;6.57;3.90;;;14.30;47.40;;;;;;10247430;28;20245;-87
2022/04/04 03:07:21;;;;;;;4.17;2.80;;;14.30;47.30;;;;;;10258977;28;20258;-86
2022/04/04 03:12:24;;;;;;;6.07;3.17;;;14.40;47.40;;;;;;10286065;28;20670;-87
2022/04/04 03:17:26;;;;;;;3.93;3.07;;;14.30;47.60;;;;;;10285071;28;20315;-86
2022/04/04 03:22:29;;;;;;;4.57;3.00;;;14.30;47.70;;;;;;10254780;28;20246;-86
2022/04/04 03:27:31;;;;;;;4.73;3.10;;;14.30;47.80;;;;;;10282036;28;20217;-86
2022/04/04 03:32:34;;;;;;;3.87;2.73;;;14.30;48.00;;;;;;10283717;28;20941;-87
2022/04/04 03:37:38;;;;;;;4.33;3.30;;;14.10;48.30;;;;;;10290161;28;20244;-86
2022/04/04 03:42:41;;;;;;;5.17;3.23;;;14.30;48.20;;;;;;10273053;28;20320;-86
2022/04/04 03:47:44;;;;;;;4.80;3.30;;;14.10;48.50;;;;;;10279701;28;20225;-86
2022/04/04 03:52:48;;;;;;;4.63;3.10;;;14.10;48.70;;;;;;10292830;28;20261;-87
2022/04/04 03:57:51;;;;;;;6.53;3.00;;;14.00;48.90;;;;;;10259683;28;20320;-86
2022/04/04 04:02:54;;;;;;;4.70;2.47;;;14.00;48.80;;;;;;10274242;28;20249;-86
2022/04/04 04:07:57;;;;;;;3.50;2.43;;;14.00;49.00;;;;;;10291396;28;20299;-87
2022/04/04 04:13:02;;;;;;;6.47;3.00;;;13.90;49.10;;;;;;10273955;28;20225;-86
2022/04/04 04:18:05;;;;;;;4.23;3.00;;;13.90;49.20;;;;;;10261305;28;20604;-86
2022/04/04 04:23:08;;;;;;;3.30;2.63;;;14.10;49.10;;;;;;10266087;28;20893;-87
2022/04/04 04:28:11;;;;;;;4.17;2.90;;;14.00;49.00;;;;;;10284706;28;20233;-86
2022/04/04 04:33:13;;;;;;;4.40;2.77;;;14.00;49.30;;;;;;10284268;28;20257;-87
2022/04/04 04:38:16;;;;;;;4.07;2.70;;;14.10;49.20;;;;;;10253671;28;20229;-87
2022/04/04 04:43:19;;;;;;;3.43;2.43;;;14.00;49.30;;;;;;10277067;28;20253;-87
2022/04/04 04:48:22;;;;;;;3.97;2.30;;;14.10;49.10;;;;;;10253085;28;20218;-86
2022/04/04 04:53:24;;;;;;;3.50;2.60;;;14.20;49.10;;;;;;10269649;28;20285;-86
2022/04/04 04:58:27;;;;;;;3.80;2.57;;;14.20;49.10;;;;;;10266136;28;20801;-86
2022/04/04 05:03:29;;;;;;;3.47;2.33;;;14.20;49.20;;;;;;10276182;28;20253;-86
2022/04/04 05:08:32;;;;;;;4.37;3.10;;;14.30;49.10;;;;;;10288153;28;20260;-86
2022/04/04 05:13:34;;;;;;;3.67;2.40;;;14.30;49.10;;;;;;10288580;28;20269;-85
2022/04/04 05:18:37;;;;;;;4.13;2.37;;;14.20;49.50;;;;;;10288729;28;20241;-85
2022/04/04 05:23:41;;;;;;;3.97;2.40;;;14.30;49.30;;;;;;10277594;28;20254;-85
2022/04/04 05:28:44;;;;;;;3.00;2.00;;;14.30;49.30;;;;;;10280123;28;20284;-85
2022/04/04 05:33:47;;;;;;;3.60;2.47;;;14.30;49.40;;;;;;10260396;28;20800;-85
2022/04/04 05:38:50;;;;;;;3.17;2.20;;;14.30;49.40;;;;;;10251144;29;20242;-86
2022/04/04 05:43:52;;;;;;;3.43;2.40;;;14.30;49.40;;;;;;10260637;28;20221;-85
2022/04/04 05:48:55;;;;;;;2.93;2.03;;;14.40;49.40;;;;;;10293961;28;20229;-85
2022/04/04 05:53:57;;;;;;;3.47;2.27;;;14.30;49.60;;;;;;10210370;29;20289;-86
2022/04/04 05:59:00;;;;;;;2.37;2.07;;;14.30;49.40;;;;;;10281933;28;20275;-85
2022/04/04 06:04:03;;;;;;;6.00;4.10;;;14.40;49.30;;;;;;10273657;28;20654;-94
2022/04/04 06:09:06;;;;;;;8.43;4.00;;;10.40;60.40;;;;;;10238725;28;20749;-94
2022/04/04 06:14:08;;;;;;;6.87;3.60;;;11.40;57.10;;;;;;10283827;28;20208;-93
2022/04/04 06:19:11;;;;;;;5.50;4.03;;;12.80;54.10;;;;;;10264966;28;20229;-93
2022/04/04 06:24:14;;;;;;;8.40;3.47;;;13.10;53.10;;;;;;10251970;29;20240;-93
2022/04/04 06:29:16;;;;;;;4.17;2.87;;;13.40;52.50;;;;;;10255588;28;20198;-93
2022/04/04 06:34:22;;;;;;;3.70;2.87;;;13.60;52.10;;;;;;10274212;28;20203;-96
2022/04/04 06:39:25;;;;;;;5.70;4.20;;;13.60;52.10;;;;;;10242071;28;20212;-93
2022/04/04 06:44:27;;;;;;;9.20;4.30;;;12.30;54.50;;;;;;10251859;28;20273;-93
2022/04/04 06:49:30;;;;;;;6.10;3.07;;;12.90;53.80;;;;;;10250743;28;20214;-93
2022/04/04 06:54:33;;;;;;;3.30;2.20;;;13.30;52.90;;;;;;10249442;29;20215;-92
2022/04/04 06:59:35;;;;;;;3.93;2.63;;;13.50;52.30;;;;;;10249784;29;20238;-93
2022/04/04 07:04:40;;;;;;;3.80;2.67;;;13.60;52.10;;;;;;10249425;29;20659;-92
2022/04/04 07:09:44;;;;;;;4.63;3.30;;;13.70;51.90;;;;;;10248127;28;20210;-93
2022/04/04 07:14:47;;;;;;;3.80;1.83;;;13.80;51.70;;;;;;10250065;29;20206;-92
2022/04/04 07:19:50;;;;;;;2.87;2.23;;;13.90;51.40;;;;;;10248823;29;20558;-92
2022/04/04 07:24:52;;;;;;;3.73;2.23;;;14.00;51.30;;;;;;10248707;29;20206;-92
2022/04/04 07:29:55;;;;;;;7.60;4.97;;;14.00;51.30;;;;;;10265594;28;20209;-86
2022/04/04 07:34:58;;;;;;;3.20;2.90;;;11.90;55.70;;;;;;10260276;28;20271;-87
2022/04/04 07:40:01;;;;;;;5.50;2.97;;;13.20;54.60;;;;;;10259470;28;20225;-86
2022/04/04 07:45:04;;;;;;;5.43;2.13;;;14.10;52.80;;;;;;10268484;28;20202;-87
2022/04/04 07:50:11;;;;;;;3.10;2.50;;;14.60;52.20;;;;;;10250625;28;20613;-86
2022/04/04 07:55:13;;;;;;;2.97;2.03;;;14.70;51.60;;;;;;10251796;28;20199;-87
2022/04/04 08:00:17;;;;;;;4.37;1.73;;;15.10;51.80;;;;;;10256660;28;20288;-87
2022/04/04 08:05:21;;;;;;;6.57;1.73;;;15.30;51.40;;;;;;10245506;28;20218;-87
2022/04/04 08:10:24;;;;;;;7.77;2.27;;;15.20;51.60;;;;;;10229556;29;20202;-87
2022/04/04 08:15:27;;;;;;;2.40;1.83;;;15.50;51.40;;;;;;10250900;29;20261;-87
2022/04/04 08:20:31;;;;;;;8.87;1.80;;;15.60;51.20;;;;;;10247270;28;20959;-86
2022/04/04 08:25:35;;;;;;;4.00;1.50;;;15.80;50.70;;;;;;10257822;28;20202;-87
2022/04/04 08:30:38;;;;;;;7.83;1.73;;;15.80;50.80;;;;;;10254769;29;20257;-87
2022/04/04 08:35:41;;;;;;;1.93;1.47;;;15.90;50.50;;;;;;10254611;29;20254;-86
2022/04/04 08:40:45;;;;;;;2.23;1.10;;;15.90;50.40;;;;;;10256443;28;20238;-87
2022/04/04 08:45:49;;;;;;;5.63;1.93;;;15.80;50.60;;;;;;10257006;28;20210;-87
2022/04/04 08:50:51;;;;;;;1.77;1.37;;;16.00;50.50;;;;;;10252314;29;20214;-87
2022/04/04 08:55:57;;;;;;;3.37;1.40;;;16.00;50.10;;;;;;10252371;29;20200;-87
2022/04/04 09:01:00;;;;;;;5.03;1.57;;;16.10;50.00;;;;;;10267793;28;20709;-87
2022/04/04 09:06:04;;;;;;;1.47;1.10;;;16.10;49.80;;;;;;10252084;28;20246;-88
2022/04/04 09:11:07;;;;;;;2.63;2.10;;;16.00;49.60;;;;;;10248966;29;20225;-88
2022/04/04 09:16:13;;;;;;;3.43;1.33;;;16.10;49.60;;;;;;10248819;29;20676;-88
2022/04/04 09:21:19;;;;;;;2.30;1.43;;;16.00;49.60;;;;;;10250869;29;20326;-87
2022/04/04 09:26:29;;;;;;;5.87;1.60;;;16.00;49.50;;;;;;10235294;28;20674;-88
2022/04/04 09:31:32;;;;;;;2.20;1.13;;;16.00;49.70;;;;;;10208318;29;20267;-87
2022/04/04 09:36:46;;;;;;;2.10;1.30;;;16.10;49.40;;;;;;10209935;29;20635;-87
2022/04/04 09:41:49;;;;;;;4.57;1.53;;;16.00;49.30;;;;;;10260227;28;20300;-88
2022/04/04 09:46:51;;;;;;;5.33;1.40;;;16.00;49.10;;;;;;10248785;29;20257;-88
2022/04/04 09:51:58;;;;;;;3.43;1.27;;;15.90;49.20;;;;;;10245137;29;20246;-88
2022/04/04 09:57:20;;;;;;;5.80;1.30;;;15.50;50.00;;;;;;10229375;29;20245;-87
2022/04/04 10:02:22;;;;;;;7.63;1.93;;;15.90;49.20;;;;;;10243303;29;20257;-88
2022/04/04 10:07:26;;;;;;;3.53;1.33;;;15.90;49.00;;;;;;10244605;29;20238;-88
2022/04/04 10:12:29;;;;;;;4.10;1.87;;;15.70;49.10;;;;;;10226394;29;20238;-87
2022/04/04 10:17:32;;;;;;;7.17;1.67;;;15.90;47.00;;;;;;10243166;29;20301;-88
2022/04/04 10:22:35;;;;;;;2.57;1.17;;;15.40;48.30;;;;;;10232510;29;20353;-87
2022/04/04 10:27:37;;;;;;;2.13;1.10;;;15.60;49.30;;;;;;10247974;29;20608;-88
2022/04/04 10:32:51;;;;;;;5.80;1.23;;;15.80;48.70;;;;;;10274995;28;20230;-88
2022/04/04 10:37:59;;;;;;;3.93;1.37;;;15.80;48.70;;;;;;10285621;28;20626;-87
2022/04/04 10:43:11;;;;;;;3.50;1.10;;;15.90;48.60;;;;;;10245267;28;20309;-88
2022/04/04 10:48:17;;;;;;;6.83;1.37;;;15.80;48.50;;;;;;10300655;28;20230;-88
2022/04/04 10:53:40;;;;;;;1.77;1.10;;;15.50;46.80;;;;;;10279935;28;20646;-87
2022/04/04 10:58:42;;;;;;;2.07;1.40;;;15.10;50.00;;;;;;10268795;28;20319;-88
2022/04/04 11:03:51;;;;;;;8.73;1.53;;;15.40;49.20;;;;;;10285471;28;20265;-87
2022/04/04 11:09:14;;;;;;;1.30;0.93;;;15.40;49.40;;;;;;10283952;28;20307;-88
2022/04/04 11:14:42;;;;;;;2.87;1.37;;;15.80;48.30;;;;;;10273684;28;20634;-88
2022/04/04 11:19:45;;;;;;;2.00;1.57;;;15.70;48.40;;;;;;10290955;28;20205;-87
2022/04/04 11:24:58;;;;;;;8.80;1.73;;;15.80;48.10;;;;;;10285630;28;20256;-88
2022/04/04 11:30:13;;;;;;;3.63;1.53;;;15.70;48.10;;;;;;10290427;28;20258;-88
2022/04/04 11:35:27;;;;;;;5.83;2.20;;;15.60;48.20;;;;;;10278764;28;20240;-88
2022/04/04 11:40:37;;;;;;;45.07;8.13;;;15.40;48.10;;;;;;10257403;28;20247;-88
2022/04/04 11:45:42;;;;;;;6.10;2.00;;;14.00;45.20;;;;;;10225611;28;20259;-88
2022/04/04 11:50:45;;;;;;;2.13;1.33;;;15.40;48.40;;;;;;10256803;28;20659;-88
2022/04/04 11:55:48;;;;;;;4.80;1.53;;;15.50;48.00;;;;;;10277581;28;20630;-87
2022/04/04 12:00:55;;;;;;;6.57;1.93;;;15.60;47.90;;;;;;10290558;28;20257;-87
2022/04/04 12:06:05;;;;;;;5.90;1.77;;;15.70;47.40;;;;;;10292619;28;20315;-87
2022/04/04 12:11:10;;;;;;;12.03;2.80;;;15.60;47.20;;;;;;10280633;28;20237;-88
2022/04/04 12:16:13;;;;;;;6.60;1.73;;;15.50;47.00;;;;;;10250847;28;20233;-88
2022/04/04 12:21:17;;;;;;;4.77;1.67;;;15.00;48.60;;;;;;10240578;28;20683;-87
2022/04/04 12:26:23;;;;;;;6.63;2.40;;;15.40;47.70;;;;;;10252790;28;20230;-87
2022/04/04 12:31:28;;;;;;;26.17;3.20;;;15.50;47.20;;;;;;10251915;28;20235;-87
2022/04/04 12:36:32;;;;;;;7.77;1.97;;;15.40;46.50;;;;;;10244423;28;20238;-86
2022/04/04 12:41:45;;;;;;;5.77;2.70;;;15.40;47.30;;;;;;10267024;28;20863;-87
2022/04/04 12:46:48;;;;;;;41.57;6.97;;;15.40;47.00;;;;;;10271055;28;20230;-91
2022/04/04 12:52:00;;;;;;;22.13;5.80;;;13.10;42.10;;;;;;10250302;28;20688;-90
2022/04/04 12:57:06;;;;;;;16.93;4.03;;;13.60;43.60;;;;;;10250383;29;20692;-91
2022/04/04 13:02:10;;;;;;;35.27;6.33;;;14.00;42.10;;;;;;10249179;29;20262;-91
2022/04/04 13:07:17;;;;;;;14.17;4.80;;;13.90;42.10;;;;;;10249868;28;20233;-91
2022/04/04 13:12:41;;;;;;;29.07;6.83;;;14.30;41.90;;;;;;10252690;29;20234;-91
2022/04/04 13:17:44;;;;;;;22.77;5.57;;;14.30;42.90;;;;;;10250994;29;20257;-90
2022/04/04 13:22:49;;;;;;;16.30;4.17;;;14.60;42.10;;;;;;10233610;29;20281;-90
2022/04/04 13:27:52;;;;;;;26.30;4.00;;;14.50;42.60;;;;;;10250700;28;20202;-91
2022/04/04 13:32:54;;;;;;;12.40;3.57;;;14.80;42.30;;;;;;10233547;29;20320;-91
2022/04/04 13:37:57;;;;;;;18.57;4.07;;;14.90;42.40;;;;;;10249739;29;20277;-91
2022/04/04 13:43:00;;;;;;;18.03;4.27;;;14.60;42.90;;;;;;10265718;28;20312;-90
2022/04/04 13:48:03;;;;;;;14.83;3.37;;;14.50;43.00;;;;;;10249538;29;20289;-90
2022/04/04 13:53:06;;;;;;;8.30;3.47;;;14.40;43.10;;;;;;10249179;29;20242;-92
2022/04/04 13:58:09;;;;;;;51.43;7.57;;;14.50;43.70;;;;;;10249438;29;20266;-91
2022/04/04 14:03:13;;;;;;;21.03;5.37;;;14.00;42.30;;;;;;10249211;29;20253;-92
2022/04/04 14:08:18;;;;;;;15.63;4.20;;;14.40;43.20;;;;;;10248112;29;20290;-92
2022/04/04 14:13:24;;;;;;;30.33;6.10;;;14.40;43.90;;;;;;10247985;29;20235;-91
2022/04/04 14:18:27;;;;;;;21.00;5.50;;;13.60;42.00;;;;;;10256707;28;20583;-84
2022/04/04 14:23:32;;;;;;;34.33;6.83;;;13.60;47.60;;;;;;10284150;28;20245;-83
2022/04/04 14:28:36;;;;;;;20.63;4.93;;;;;;;;;;10288418;28;20229;-83
2022/04/04 14:33:39;;;;;;;46.23;7.90;;;16.00;40.20;;;;;;10281892;28;20249;-84
2022/04/04 14:38:42;;;;;;;41.30;6.67;;;15.20;38.30;;;;;;10247059;29;20246;-85
2022/04/04 14:43:44;;;;;;;29.87;6.87;;;13.90;44.00;;;;;;10253733;28;20276;-85
2022/04/04 14:48:48;;;;;;;10.37;3.90;;;;;;;;;;10285569;28;20789;-85
2022/04/04 14:53:50;;;;;;;22.57;4.27;;;16.40;41.00;;;;;;10288058;28;20314;-85
2022/04/04 14:58:53;;;;;;;13.83;4.13;;;16.90;39.30;;;;;;10287751;28;20317;-85
2022/04/04 15:03:58;;;;;;;24.37;5.03;;;16.50;42.00;;;;;;10278878;28;20289;-90
2022/04/04 15:09:00;;;;;;;28.20;4.77;;;16.20;36.70;;;;;;10243056;28;20686;-91
2022/04/04 15:14:03;;;;;;;50.47;6.80;;;14.10;39.60;;;;;;10207668;29;20286;-91
2022/04/04 15:19:06;;;;;;;25.00;3.80;;;14.10;39.10;;;;;;10207215;29;20215;-93
2022/04/04 15:24:08;;;;;;;20.23;5.47;;;14.90;39.70;;;;;;10244377;28;20249;-92
2022/04/04 15:29:21;;;;;;;28.77;5.20;;;14.40;40.50;;;;;;10266877;28;20230;-92
2022/04/04 15:34:24;;;;;;;24.60;4.27;;;14.70;40.10;;;;;;10255685;29;20300;-91
2022/04/04 15:39:30;;;;;;;23.20;4.43;;;14.80;40.00;;;;;;10255845;29;20742;-91
2022/04/04 15:44:34;;;;;;;24.47;4.07;;;14.70;40.30;;;;;;10255932;29;20253;-91
2022/04/04 15:49:38;;;;;;;27.90;4.57;;;14.80;40.60;;;;;;10265222;28;20617;-92
2022/04/04 15:54:46;;;;;;;64.07;8.90;;;14.90;40.50;;;;;;10268296;28;20233;-91
2022/04/04 15:59:49;;;;;;;24.93;4.13;;;13.50;44.00;;;;;;10276534;28;20233;-88
2022/04/04 16:04:51;;;;;;;42.60;5.17;;;12.50;57.20;;;;;;10269909;28;20344;-92
2022/04/04 16:09:58;;;;;;;14.90;6.17;;;14.50;52.20;;;;;;10272749;28;20210;-93
2022/04/04 16:15:00;;;;;;;24.53;3.40;;;16.70;48.90;;;;;;10263653;28;20277;-92
2022/04/04 16:20:17;;;;;;;11.57;3.43;;;16.90;47.60;;;;;;10253812;29;20544;-92
2022/04/04 16:25:20;;;;;;;17.23;5.13;;;17.00;47.10;;;;;;10269519;28;20271;-92
2022/04/04 16:30:23;;;;;;;11.30;2.73;;;15.70;49.10;;;;;;10283057;28;20285;-92
2022/04/04 16:35:25;;;;;;;8.00;2.77;;;16.10;48.10;;;;;;10286530;28;20234;-92
2022/04/04 16:40:28;;;;;;;10.03;2.90;;;16.70;46.80;;;;;;10290336;28;20210;-91
2022/04/04 16:45:31;;;;;;;58.13;6.73;;;17.40;45.40;;;;;;10285907;28;20280;-92
2022/04/04 16:50:34;;;;;;;33.60;6.37;;;14.80;44.80;;;;;;10293353;28;20275;-90
2022/04/04 16:55:37;;;;;;;18.63;5.57;;;14.50;46.20;;;;;;10291641;28;20209;-91
2022/04/04 17:00:40;;;;;;;27.93;6.97;;;14.30;45.90;;;;;;10291143;28;20269;-93
2022/04/04 17:05:42;;;;;;;25.13;8.07;;;13.50;48.70;;;;;;10291728;28;20249;-91
2022/04/04 17:10:45;;;;;;;26.13;4.00;;;13.50;50.10;;;;;;10292042;28;20288;-92
2022/04/04 17:15:48;;;;;;;21.13;5.63;;;13.50;48.80;;;;;;10275389;28;20210;-87
2022/04/04 17:20:51;;;;;;;37.53;9.13;;;11.50;62.20;;;;;;10259544;28;20233;-87
2022/04/04 17:25:54;;;;;;;13.33;6.33;;;13.60;52.20;;;;;;10296311;28;20245;-87
2022/04/04 17:30:57;;;;;;;18.57;5.40;;;13.40;56.60;;;;;;10286316;28;20222;-88
2022/04/04 17:36:00;;;;;;;12.73;5.80;;;16.00;53.40;;;;;;10265109;28;20257;-88
2022/04/04 17:41:06;;;;;;;20.30;7.23;;;11.30;66.00;;;;;;10246874;28;20246;-87
2022/04/04 17:46:08;;;;;;;16.57;5.60;;;14.70;58.80;;;;;;10256778;28;20707;-87
2022/04/04 17:51:11;;;;;;;22.10;5.63;;;16.50;53.90;;;;;;10248718;28;20650;-88
2022/04/04 17:56:14;;;;;;;19.17;6.53;;;17.00;52.70;;;;;;10282637;28;20225;-88
2022/04/04 18:01:17;;;;;;;11.67;5.43;;;15.80;54.20;;;;;;10262670;28;20279;-88
2022/04/04 18:06:20;;;;;;;11.07;4.67;;;15.20;56.00;;;;;;10236977;28;20277;-87
2022/04/04 18:11:23;;;;;;;12.20;4.07;;;15.80;55.00;;;;;;10243728;28;20309;-87
2022/04/04 18:16:27;;;;;;;6.53;3.57;;;16.50;53.70;;;;;;10247011;29;20264;-87
2022/04/04 18:21:30;;;;;;;10.70;6.57;;;16.80;52.90;;;;;;10243753;28;20232;-87
2022/04/04 18:26:34;;;;;;;9.80;4.23;;;15.80;54.70;;;;;;10262282;28;20261;-87
2022/04/04 18:31:39;;;;;;;17.33;11.73;;;13.60;60.20;;;;;;10234637;28;20226;-87
2022/04/04 18:36:42;;;;;;;10.10;7.87;;;11.30;63.80;;;;;;10245500;28;20300;-86
2022/04/04 18:41:44;;;;;;;11.70;6.83;;;13.20;61.40;;;;;;10247538;28;20296;-87
2022/04/04 18:46:53;;;;;;;7.20;3.20;;;14.50;58.10;;;;;;10253383;28;20604;-87
2022/04/04 18:51:59;;;;;;;11.43;6.93;;;15.00;56.90;;;;;;10247246;28;20210;-86
2022/04/04 18:57:04;;;;;;;12.17;7.20;;;15.30;55.90;;;;;;10261681;28;20694;-87
2022/04/04 19:02:07;;;;;;;7.50;5.40;;;13.10;60.50;;;;;;10247869;28;20694;-88
2022/04/04 19:07:10;;;;;;;11.37;10.17;;;11.70;64.60;;;;;;10246299;28;20258;-87
2022/04/04 19:12:12;;;;;;;5.73;4.80;;;9.60;69.80;;;;;;10246220;28;20234;-87
2022/04/04 19:17:15;;;;;;;6.13;3.53;;;13.40;61.00;;;;;;10261342;28;20221;-87
2022/04/04 19:22:18;;;;;;;5.43;3.23;;;14.10;59.40;;;;;;10239109;28;20283;-87
2022/04/04 19:27:20;;;;;;;8.57;5.77;;;14.90;57.60;;;;;;10243904;28;20271;-86
2022/04/04 19:32:27;;;;;;;6.17;5.50;;;13.80;60.00;;;;;;10237261;28;20304;-86
2022/04/04 19:37:31;;;;;;;5.33;4.73;;;12.90;61.10;;;;;;10248219;28;20237;-86
2022/04/04 19:42:33;;;;;;;8.53;7.20;;;14.00;59.50;;;;;;10287823;28;20229;-86
2022/04/04 19:47:36;;;;;;;3.57;2.83;;;14.40;57.90;;;;;;10266496;28;20290;-86
2022/04/04 19:52:38;;;;;;;6.33;2.90;;;14.90;57.60;;;;;;10241047;28;20289;-86
2022/04/04 19:57:42;;;;;;;5.80;3.50;;;15.80;55.10;;;;;;10241445;28;20727;-86
2022/04/04 20:02:44;;;;;;;4.47;2.70;;;16.10;54.40;;;;;;10244481;28;20663;-87
2022/04/04 20:07:47;;;;;;;3.20;2.80;;;16.00;54.40;;;;;;10246502;28;20662;-86
2022/04/04 20:12:49;;;;;;;4.87;3.20;;;15.90;54.50;;;;;;10244325;28;20626;-86
2022/04/04 20:17:52;;;;;;;7.03;2.60;;;16.20;54.00;;;;;;10248516;28;20706;-86
2022/04/04 20:22:55;;;;;;;2.87;2.43;;;16.00;54.40;;;;;;10252247;28;20754;-86
2022/04/04 20:27:57;;;;;;;4.77;2.50;;;16.10;54.20;;;;;;10252373;28;20329;-85
2022/04/04 20:33:00;;;;;;;3.23;2.80;;;15.90;54.50;;;;;;10270891;28;20664;-85
2022/04/04 20:38:03;;;;;;;3.53;2.53;;;16.30;53.80;;;;;;10251600;28;20635;-86
2022/04/04 20:43:05;;;;;;;4.27;3.00;;;16.10;53.90;;;;;;10252516;29;20662;-85
2022/04/04 20:48:08;;;;;;;6.23;3.40;;;15.10;56.30;;;;;;9935386;28;9999767;-86
2022/04/04 20:53:10;;;;;;;4.27;3.13;;;14.90;56.40;;;;;;10231272;28;20234;-86
2022/04/04 20:58:14;;;;;;;5.60;2.63;;;15.80;54.60;;;;;;10232045;28;20274;-86
2022/04/04 21:03:16;;;;;;;4.00;2.67;;;16.00;54.30;;;;;;10256688;28;20226;-85
2022/04/04 21:08:21;;;;;;;4.90;2.50;;;15.90;54.60;;;;;;10245651;29;20649;-85
2022/04/04 21:13:24;;;;;;;6.23;2.60;;;16.20;53.70;;;;;;10263113;28;20234;-86
2022/04/04 21:18:27;;;;;;;5.77;4.50;;;15.90;54.30;;;;;;10248356;28;20282;-86
2022/04/04 21:23:29;;;;;;;3.53;2.30;;;15.60;55.00;;;;;;10254623;28;20237;-86
2022/04/04 21:28:34;;;;;;;3.30;2.83;;;15.70;54.60;;;;;;10284707;28;20233;-85
2022/04/04 21:33:37;;;;;;;3.60;2.60;;;16.00;54.30;;;;;;10275846;28;20274;-86
2022/04/04 21:38:40;;;;;;;4.33;3.03;;;16.20;53.90;;;;;;10263246;28;20230;-86
2022/04/04 21:43:43;;;;;;;4.40;2.90;;;16.00;54.10;;;;;;10245458;28;20246;-86
2022/04/04 21:48:47;;;;;;;2.90;2.60;;;15.80;54.50;;;;;;10247250;29;20234;-86
2022/04/04 21:53:50;;;;;;;2.67;2.33;;;16.00;54.00;;;;;;10275641;28;20635;-86
2022/04/04 21:58:52;;;;;;;4.73;2.90;;;15.80;54.60;;;;;;10286590;28;20266;-86
2022/04/04 22:03:55;;;;;;;2.70;2.20;;;16.00;54.00;;;;;;10274022;28;20244;-86
2022/04/04 22:08:57;;;;;;;3.27;2.47;;;16.00;54.10;;;;;;10244403;28;20254;-86
2022/04/04 22:14:00;;;;;;;3.50;2.37;;;16.00;54.10;;;;;;10244829;28;20627;-85
2022/04/04 22:19:02;;;;;;;2.60;2.13;;;15.90;54.40;;;;;;10245346;28;20792;-86
2022/04/04 22:24:06;;;;;;;2.63;2.30;;;15.90;54.20;;;;;;10263564;28;20254;-86
2022/04/04 22:29:09;;;;;;;3.47;2.70;;;15.90;54.50;;;;;;10259876;28;20623;-86
2022/04/04 22:34:11;;;;;;;3.73;3.10;;;15.80;54.70;;;;;;10258336;28;20231;-86
2022/04/04 22:39:14;;;;;;;3.20;2.90;;;15.80;54.70;;;;;;10255180;28;20308;-87
2022/04/04 22:44:16;;;;;;;2.57;2.37;;;15.80;54.60;;;;;;10246783;28;20641;-86
2022/04/04 22:49:19;;;;;;;3.53;2.80;;;15.80;54.80;;;;;;10270043;28;20226;-86
2022/04/04 22:54:22;;;;;;;2.63;2.20;;;15.50;55.50;;;;;;10247492;29;20676;-86
2022/04/04 22:59:24;;;;;;;3.10;2.80;;;15.70;55.10;;;;;;10286612;28;20261;-87
2022/04/04 23:04:27;;;;;;;4.27;3.83;;;15.60;55.40;;;;;;10286611;28;20241;-86
2022/04/04 23:09:29;;;;;;;2.30;2.10;;;15.50;55.40;;;;;;10284999;28;20264;-86
2022/04/04 23:14:32;;;;;;;2.23;2.03;;;15.70;55.70;;;;;;10250221;28;20241;-86
2022/04/04 23:19:34;;;;;;;5.77;2.73;;;15.50;55.50;;;;;;10258829;28;20234;-86
2022/04/04 23:24:37;;;;;;;1.80;1.70;;;15.40;55.80;;;;;;10285662;28;20376;-85
2022/04/04 23:29:39;;;;;;;2.80;2.20;;;15.60;55.40;;;;;;10246164;29;20302;-86
2022/04/04 23:34:42;;;;;;;2.60;2.40;;;15.60;55.50;;;;;;10271656;28;20664;-86
2022/04/04 23:39:48;;;;;;;2.53;2.33;;;15.50;55.70;;;;;;10287380;28;20676;-86
2022/04/04 23:44:50;;;;;;;3.47;2.20;;;15.50;55.90;;;;;;10285861;28;20699;-86
2022/04/04 23:49:53;;;;;;;2.13;1.93;;;15.50;55.90;;;;;;10285322;28;20214;-86
2022/04/04 23:54:55;;;;;;;2.50;2.23;;;15.50;55.90;;;;;;10285277;28;20745;-86
2022/04/04 23:59:58;;;;;;;2.60;2.40;;;15.50;56.00;;;;;;10289578;28;20555;-86
